Time;durP1;ratioP1;P1;durP2;ratioP2;P2;SDS_P1;SDS_P2;PMS_P1;PMS_P2;Temp;Humidity;BMP_temperature;BMP_pressure;BME280_temperature;BME280_humidity;BME280_pressure;Samples;Min_cycle;Max_cycle;Signal;HPM_P1;HPM_P2
2024/03/22 00:02:21;;;;;;;16.63;11.00;;;14.80;99.90;;;;;;5031781;28;20439;-27
2024/03/22 00:04:46;;;;;;;15.07;11.37;;;14.80;99.90;;;;;;5019705;28;20536;-30
2024/03/22 00:07:15;;;;;;;16.40;11.93;;;14.80;99.90;;;;;;5029003;28;20567;-28
2024/03/22 00:09:43;;;;;;;16.93;12.20;;;14.80;99.90;;;;;;5014295;28;20180;-26
2024/03/22 00:12:10;;;;;;;14.33;10.90;;;14.80;99.90;;;;;;5016706;28;20474;-31
2024/03/22 00:14:39;;;;;;;20.23;11.43;;;14.70;99.90;;;;;;5012609;28;20477;-32
2024/03/22 00:17:05;;;;;;;13.80;11.80;;;14.80;99.90;;;;;;5003158;28;20472;-27
2024/03/22 00:19:31;;;;;;;14.00;10.93;;;14.80;99.90;;;;;;5016671;28;20463;-27
2024/03/22 00:22:01;;;;;;;14.20;11.10;;;14.80;99.90;;;;;;5037717;28;20514;-29
2024/03/22 00:24:27;;;;;;;13.97;11.20;;;14.70;99.90;;;;;;5017739;28;20416;-26
2024/03/22 00:27:02;;;;;;;13.47;11.03;;;14.80;99.90;;;;;;5042935;28;20456;-27
2024/03/22 00:29:30;;;;;;;14.20;11.43;;;14.70;99.90;;;;;;5038570;28;21000;-29
2024/03/22 00:31:58;;;;;;;16.00;11.80;;;14.70;99.90;;;;;;5006710;28;20432;-28
2024/03/22 00:34:24;;;;;;;15.67;10.70;;;14.70;99.90;;;;;;5017267;28;20497;-27
2024/03/22 00:36:51;;;;;;;13.80;11.70;;;14.70;99.90;;;;;;5014027;28;20451;-28
2024/03/22 00:39:17;;;;;;;15.07;10.83;;;14.70;99.90;;;;;;5035965;28;20459;-29
2024/03/22 00:41:43;;;;;;;17.37;11.93;;;14.70;99.90;;;;;;5034575;28;20826;-32
2024/03/22 00:44:09;;;;;;;16.57;13.23;;;14.70;99.90;;;;;;5016973;28;20893;-32
2024/03/22 00:46:35;;;;;;;14.83;11.03;;;14.70;99.90;;;;;;5035095;28;20422;-29
2024/03/22 00:49:04;;;;;;;15.87;10.80;;;14.70;99.90;;;;;;5029588;28;20486;-31
2024/03/22 00:51:30;;;;;;;14.97;11.20;;;14.70;99.90;;;;;;5041437;28;20435;-30
2024/03/22 00:53:56;;;;;;;14.13;11.00;;;14.70;99.90;;;;;;4999493;28;20557;-27
2024/03/22 00:56:22;;;;;;;14.53;10.80;;;14.70;99.90;;;;;;5020981;28;20538;-28
2024/03/22 00:58:50;;;;;;;15.77;11.30;;;14.70;99.90;;;;;;5043174;28;20454;-28
2024/03/22 01:01:24;;;;;;;16.47;12.50;;;14.70;99.90;;;;;;5040168;28;20429;-31
2024/03/22 01:03:52;;;;;;;19.90;12.23;;;14.70;99.90;;;;;;5034493;28;20506;-28
2024/03/22 01:06:23;;;;;;;17.53;11.37;;;14.70;99.90;;;;;;5038058;28;21328;-28
2024/03/22 01:08:52;;;;;;;15.80;11.90;;;14.70;99.90;;;;;;5036624;28;20537;-31
2024/03/22 01:11:18;;;;;;;16.93;12.70;;;14.70;99.90;;;;;;5039087;28;20459;-28
2024/03/22 01:13:46;;;;;;;13.97;11.10;;;14.70;99.90;;;;;;5042722;28;20521;-27
2024/03/22 01:16:16;;;;;;;16.43;11.47;;;14.60;99.90;;;;;;5043714;28;20985;-26
2024/03/22 01:18:42;;;;;;;14.53;10.70;;;14.70;99.90;;;;;;5023379;28;20454;-31
2024/03/22 01:21:13;;;;;;;17.50;12.23;;;14.60;99.90;;;;;;5016407;28;20541;-27
2024/03/22 01:23:41;;;;;;;19.97;11.33;;;14.60;99.90;;;;;;5033648;28;20435;-31
2024/03/22 01:26:08;;;;;;;15.80;10.80;;;14.60;99.90;;;;;;5040912;28;20758;-29
2024/03/22 01:28:34;;;;;;;18.00;11.90;;;14.60;99.90;;;;;;5020220;28;20479;-28
2024/03/22 01:31:00;;;;;;;18.40;12.33;;;14.60;99.90;;;;;;5006164;28;20436;-30
2024/03/22 01:33:26;;;;;;;19.80;12.60;;;14.60;99.90;;;;;;5021751;28;20797;-28
2024/03/22 01:35:51;;;;;;;18.00;11.60;;;14.60;99.90;;;;;;5024803;28;20197;-26
2024/03/22 01:38:21;;;;;;;18.27;12.67;;;14.60;99.90;;;;;;5040548;28;20482;-30
2024/03/22 01:40:47;;;;;;;17.30;12.03;;;14.60;99.90;;;;;;5039948;28;20438;-29
2024/03/22 01:43:16;;;;;;;16.63;11.80;;;14.60;99.90;;;;;;5000807;28;20435;-26
2024/03/22 01:45:44;;;;;;;19.10;11.50;;;14.60;99.90;;;;;;5018633;28;21156;-27
2024/03/22 01:48:13;;;;;;;16.87;11.90;;;14.60;99.90;;;;;;5016927;28;20460;-29
2024/03/22 01:50:40;;;;;;;17.60;12.30;;;14.60;99.90;;;;;;5001680;28;20874;-28
2024/03/22 01:53:10;;;;;;;16.60;11.40;;;14.60;99.90;;;;;;5039491;28;20443;-26
2024/03/22 01:55:41;;;;;;;18.03;12.23;;;14.60;99.90;;;;;;5016935;28;20442;-31
2024/03/22 01:58:08;;;;;;;15.80;12.03;;;14.60;99.90;;;;;;4991225;28;21001;-26
2024/03/22 02:00:39;;;;;;;20.37;11.57;;;14.60;99.90;;;;;;5004443;28;20952;-29
2024/03/22 02:03:08;;;;;;;17.30;12.67;;;14.60;99.90;;;;;;5034557;28;20830;-28
2024/03/22 02:05:34;;;;;;;17.07;11.93;;;14.60;99.90;;;;;;5016826;28;20426;-29
2024/03/22 02:08:04;;;;;;;21.00;12.83;;;14.60;99.90;;;;;;5037309;28;20482;-29
2024/03/22 02:10:33;;;;;;;19.07;12.00;;;14.50;99.90;;;;;;5038563;28;20807;-31
2024/03/22 02:13:02;;;;;;;17.83;11.93;;;14.60;99.90;;;;;;5018833;28;20430;-29
2024/03/22 02:15:31;;;;;;;19.10;11.73;;;14.50;99.90;;;;;;5030768;28;20552;-29
2024/03/22 02:17:59;;;;;;;17.60;12.10;;;14.50;99.90;;;;;;5022107;28;20917;-30
2024/03/22 02:20:27;;;;;;;19.03;12.50;;;14.50;99.90;;;;;;5005554;28;20422;-29
2024/03/22 02:22:53;;;;;;;20.37;12.50;;;14.50;99.90;;;;;;5041083;28;21012;-27
2024/03/22 02:25:21;;;;;;;15.97;11.00;;;14.50;99.90;;;;;;5032308;28;20435;-29
2024/03/22 02:27:50;;;;;;;15.40;11.33;;;14.50;99.90;;;;;;5036505;28;20887;-27
2024/03/22 02:30:17;;;;;;;16.47;11.03;;;14.50;99.90;;;;;;5038924;28;20949;-30
2024/03/22 02:32:45;;;;;;;17.80;11.30;;;14.50;99.90;;;;;;5013907;28;20490;-31
2024/03/22 02:35:11;;;;;;;18.90;12.50;;;14.50;99.90;;;;;;5019562;28;20528;-29
2024/03/22 02:37:38;;;;;;;18.30;11.97;;;14.50;99.90;;;;;;5038571;28;20451;-28
2024/03/22 02:40:04;;;;;;;17.90;11.43;;;14.50;99.90;;;;;;5022087;28;20860;-28
2024/03/22 02:42:30;;;;;;;18.00;11.60;;;14.50;99.90;;;;;;5017348;28;20479;-26
2024/03/22 02:44:56;;;;;;;17.00;11.10;;;14.50;99.90;;;;;;5014613;28;20909;-28
2024/03/22 02:47:22;;;;;;;16.87;11.47;;;14.50;99.90;;;;;;5036347;28;20677;-30
2024/03/22 02:49:48;;;;;;;21.27;13.07;;;14.50;99.90;;;;;;5036711;28;20554;-28
2024/03/22 02:52:16;;;;;;;16.93;11.10;;;14.50;99.90;;;;;;5036086;28;20450;-29
2024/03/22 02:54:45;;;;;;;17.83;11.37;;;14.50;99.90;;;;;;5020364;28;20526;-27
2024/03/22 02:57:12;;;;;;;18.37;11.03;;;14.50;99.90;;;;;;5034597;28;20541;-29
2024/03/22 02:59:38;;;;;;;19.03;11.50;;;14.40;99.90;;;;;;5026243;28;20422;-28
2024/03/22 03:02:07;;;;;;;16.63;11.10;;;14.50;99.90;;;;;;5040052;28;20431;-29
2024/03/22 03:04:34;;;;;;;19.00;11.37;;;14.50;99.90;;;;;;5033356;28;20462;-28
2024/03/22 03:07:00;;;;;;;14.67;10.93;;;14.50;99.90;;;;;;5020443;28;20450;-29
2024/03/22 03:09:30;;;;;;;15.77;10.90;;;14.50;99.90;;;;;;5037688;28;20481;-26
2024/03/22 03:11:56;;;;;;;21.00;13.50;;;14.50;99.90;;;;;;5036934;28;20866;-30
2024/03/22 03:14:22;;;;;;;16.97;10.50;;;14.50;99.90;;;;;;5038560;28;20443;-28
2024/03/22 03:16:48;;;;;;;17.67;11.90;;;14.40;99.90;;;;;;5031476;28;20454;-26
2024/03/22 03:19:14;;;;;;;18.70;11.43;;;14.40;99.90;;;;;;5018443;28;20446;-29
2024/03/22 03:21:40;;;;;;;17.40;10.73;;;14.50;99.90;;;;;;4992552;28;20519;-28
2024/03/22 03:24:09;;;;;;;17.03;11.00;;;14.40;99.90;;;;;;5039580;28;20956;-26
2024/03/22 03:26:35;;;;;;;16.10;10.87;;;14.40;99.90;;;;;;5021559;28;20581;-27
2024/03/22 03:29:01;;;;;;;18.47;11.10;;;14.40;99.90;;;;;;5011780;28;20916;-28
2024/03/22 03:31:27;;;;;;;15.77;10.50;;;14.50;99.90;;;;;;5036323;28;20480;-27
2024/03/22 03:33:55;;;;;;;20.63;9.77;;;14.40;99.90;;;;;;5021082;28;20415;-27
2024/03/22 03:36:21;;;;;;;17.23;10.30;;;14.40;99.90;;;;;;5038948;28;20755;-28
2024/03/22 03:38:47;;;;;;;12.63;9.27;;;14.40;99.90;;;;;;5040013;28;20628;-28
2024/03/22 03:41:16;;;;;;;15.73;9.70;;;14.40;99.90;;;;;;5020270;28;20431;-25
2024/03/22 03:43:42;;;;;;;17.03;10.90;;;14.40;99.90;;;;;;5039752;28;20481;-28
2024/03/22 03:46:08;;;;;;;17.27;11.33;;;14.40;99.90;;;;;;5039061;28;20438;-27
2024/03/22 03:48:34;;;;;;;18.60;10.30;;;14.40;99.90;;;;;;5033054;28;20475;-29
2024/03/22 03:51:03;;;;;;;19.20;11.33;;;14.40;99.90;;;;;;5038125;28;21047;-31
2024/03/22 03:53:31;;;;;;;15.73;9.87;;;14.40;99.90;;;;;;5019127;28;20464;-27
2024/03/22 03:55:57;;;;;;;15.80;10.80;;;14.40;99.90;;;;;;5039584;28;20454;-25
2024/03/22 03:58:23;;;;;;;17.07;10.67;;;14.40;99.90;;;;;;5032423;28;20474;-27
2024/03/22 04:00:51;;;;;;;17.23;10.27;;;14.40;99.90;;;;;;5038767;28;20997;-27
2024/03/22 04:03:17;;;;;;;14.83;11.13;;;14.40;99.90;;;;;;5021749;28;20423;-27
2024/03/22 04:05:56;;;;;;;13.73;10.10;;;14.40;99.90;;;;;;5037321;28;20828;-26
2024/03/22 04:08:28;;;;;;;15.27;9.80;;;14.40;99.90;;;;;;5037680;28;20216;-27
2024/03/22 04:10:56;;;;;;;16.67;10.13;;;14.40;99.90;;;;;;5004348;28;20422;-25
2024/03/22 04:13:26;;;;;;;16.93;10.53;;;14.40;99.90;;;;;;5003584;28;20446;-26
2024/03/22 04:15:58;;;;;;;15.00;9.57;;;14.30;99.90;;;;;;5005334;28;20761;-26
2024/03/22 04:18:24;;;;;;;15.07;9.73;;;14.30;99.90;;;;;;4988675;28;20996;-28
2024/03/22 04:20:57;;;;;;;14.20;10.23;;;14.30;99.90;;;;;;5024011;28;21053;-27
2024/03/22 04:23:24;;;;;;;13.53;9.60;;;14.30;99.90;;;;;;5020051;28;20757;-28
2024/03/22 04:25:57;;;;;;;15.37;10.13;;;14.30;99.90;;;;;;5043134;28;20509;-26
2024/03/22 04:28:24;;;;;;;15.17;9.20;;;14.30;99.90;;;;;;5033302;28;20482;-28
2024/03/22 04:31:02;;;;;;;13.20;9.30;;;14.30;99.90;;;;;;5038123;28;20434;-27
2024/03/22 04:33:31;;;;;;;16.07;10.40;;;14.30;99.90;;;;;;5021526;28;20470;-27
2024/03/22 04:35:58;;;;;;;15.60;10.20;;;14.30;99.90;;;;;;5041495;28;20422;-27
2024/03/22 04:38:25;;;;;;;13.57;9.60;;;14.30;99.90;;;;;;5042154;28;21028;-27
2024/03/22 04:40:55;;;;;;;13.70;9.50;;;14.30;99.90;;;;;;5034445;28;21067;-28
2024/03/22 04:43:21;;;;;;;16.93;10.23;;;14.30;99.90;;;;;;5024593;28;20465;-28
2024/03/22 04:45:53;;;;;;;14.03;9.03;;;14.30;99.90;;;;;;5005145;28;20423;-29
2024/03/22 04:48:20;;;;;;;12.50;9.10;;;14.30;99.90;;;;;;5037690;28;20465;-26
2024/03/22 04:50:49;;;;;;;14.93;10.00;;;14.30;99.90;;;;;;4999524;28;20428;-28
2024/03/22 04:53:16;;;;;;;12.40;9.50;;;14.30;99.90;;;;;;5013693;28;20439;-27
2024/03/22 04:55:45;;;;;;;13.93;9.13;;;14.30;99.90;;;;;;5035578;28;20473;-27
2024/03/22 04:58:18;;;;;;;13.33;9.07;;;14.30;99.90;;;;;;5007117;28;20510;-30
2024/03/22 05:00:48;;;;;;;14.60;9.33;;;14.20;99.90;;;;;;5021555;28;20446;-28
2024/03/22 05:03:17;;;;;;;16.37;9.97;;;14.20;99.90;;;;;;5019910;28;20451;-28
2024/03/22 05:05:43;;;;;;;14.93;8.97;;;14.20;99.90;;;;;;5005291;28;20945;-27
2024/03/22 05:08:09;;;;;;;14.00;8.60;;;14.20;99.90;;;;;;5041923;28;20465;-29
2024/03/22 05:10:35;;;;;;;11.80;8.30;;;14.20;99.90;;;;;;5041857;28;20447;-28
2024/03/22 05:13:01;;;;;;;11.63;8.40;;;14.20;99.90;;;;;;5039188;28;20431;-26
2024/03/22 05:15:28;;;;;;;12.93;8.57;;;14.20;99.90;;;;;;5036137;28;20817;-28
2024/03/22 05:17:57;;;;;;;13.90;8.70;;;14.20;99.90;;;;;;5018908;28;20536;-26
2024/03/22 05:20:22;;;;;;;9.83;7.87;;;14.20;99.90;;;;;;5021690;28;20437;-26
2024/03/22 05:22:51;;;;;;;13.93;9.13;;;14.20;99.90;;;;;;5022557;28;20854;-30
2024/03/22 05:25:17;;;;;;;10.80;8.30;;;14.20;99.90;;;;;;5018173;28;20459;-28
2024/03/22 05:27:46;;;;;;;12.67;9.03;;;14.20;99.90;;;;;;5022577;28;20561;-28
2024/03/22 05:30:17;;;;;;;18.90;9.80;;;14.20;99.90;;;;;;5018760;28;20939;-26
2024/03/22 05:32:43;;;;;;;13.30;9.33;;;14.20;99.90;;;;;;5037680;28;20457;-29
2024/03/22 05:35:09;;;;;;;10.97;8.13;;;14.20;99.90;;;;;;5022263;28;20435;-29
2024/03/22 05:37:38;;;;;;;14.13;9.13;;;14.20;99.90;;;;;;5008107;28;20463;-26
2024/03/22 05:40:08;;;;;;;12.77;8.30;;;14.20;99.90;;;;;;5037564;28;20521;-27
2024/03/22 05:42:34;;;;;;;13.93;8.67;;;14.20;99.90;;;;;;5040347;28;20423;-27
2024/03/22 05:45:03;;;;;;;12.87;8.60;;;14.20;99.90;;;;;;5018792;28;21014;-26
2024/03/22 05:47:31;;;;;;;13.30;9.67;;;14.20;99.90;;;;;;5020049;28;20482;-26
2024/03/22 05:50:01;;;;;;;13.93;9.50;;;14.20;99.90;;;;;;5038005;28;20526;-27
2024/03/22 05:52:28;;;;;;;12.63;8.97;;;14.20;99.90;;;;;;5031018;28;20422;-29
2024/03/22 05:54:57;;;;;;;12.20;9.33;;;14.20;99.90;;;;;;5023483;28;21023;-29
2024/03/22 05:57:23;;;;;;;12.50;8.97;;;14.20;99.90;;;;;;5032871;28;20916;-27
2024/03/22 05:59:50;;;;;;;12.73;8.13;;;14.10;99.90;;;;;;5033607;28;20423;-26
2024/03/22 06:02:16;;;;;;;14.80;9.13;;;14.10;99.90;;;;;;5035908;28;20640;-30
2024/03/22 06:04:42;;;;;;;12.03;9.37;;;14.10;99.90;;;;;;5036920;28;20422;-27
2024/03/22 06:07:12;;;;;;;12.57;8.30;;;14.10;99.90;;;;;;5037253;28;20438;-26
2024/03/22 06:09:46;;;;;;;11.93;9.50;;;14.10;99.90;;;;;;4991177;28;20486;-28
2024/03/22 06:12:15;;;;;;;13.03;8.60;;;14.10;99.90;;;;;;5042705;28;20435;-26
2024/03/22 06:14:46;;;;;;;13.20;7.67;;;14.10;99.90;;;;;;5017309;28;20418;-26
2024/03/22 06:17:12;;;;;;;12.33;8.87;;;14.10;99.90;;;;;;5020909;28;20450;-27
2024/03/22 06:19:42;;;;;;;12.57;9.77;;;14.10;99.90;;;;;;5036679;28;20811;-28
2024/03/22 06:22:08;;;;;;;13.23;9.23;;;14.10;99.90;;;;;;5042178;28;20492;-29
2024/03/22 06:24:34;;;;;;;12.53;8.87;;;14.10;99.90;;;;;;5039163;28;20431;-28
2024/03/22 06:27:00;;;;;;;11.73;8.17;;;14.10;99.90;;;;;;5043352;28;20457;-27
2024/03/22 06:29:26;;;;;;;11.87;8.10;;;14.10;99.90;;;;;;5047625;28;20462;-29
2024/03/22 06:31:52;;;;;;;11.83;8.60;;;14.10;99.90;;;;;;5049134;28;20430;-30
2024/03/22 06:34:18;;;;;;;15.20;10.47;;;14.10;99.90;;;;;;5027441;28;20466;-30
2024/03/22 06:36:47;;;;;;;12.23;9.40;;;14.10;99.90;;;;;;5044198;28;20513;-30
2024/03/22 06:39:14;;;;;;;13.17;8.67;;;14.10;99.90;;;;;;5026399;28;20422;-26
2024/03/22 06:41:44;;;;;;;12.73;9.50;;;14.10;99.90;;;;;;5025471;28;20427;-27
2024/03/22 06:44:12;;;;;;;14.33;9.40;;;14.10;99.90;;;;;;5025430;28;20445;-27
2024/03/22 06:46:39;;;;;;;13.80;9.10;;;14.10;99.90;;;;;;5036558;28;20416;-26
2024/03/22 06:49:10;;;;;;;14.63;10.20;;;14.10;99.90;;;;;;5032015;28;20517;-26
2024/03/22 06:51:38;;;;;;;12.73;9.13;;;14.10;99.90;;;;;;5013937;28;20536;-25
2024/03/22 06:54:04;;;;;;;11.03;8.70;;;14.00;99.90;;;;;;5021176;28;21057;-26
2024/03/22 06:56:32;;;;;;;15.80;9.90;;;14.10;99.90;;;;;;5034136;28;20526;-26
2024/03/22 06:59:03;;;;;;;15.73;10.27;;;14.10;99.90;;;;;;5041673;28;20447;-30
2024/03/22 07:01:29;;;;;;;13.80;10.83;;;14.10;99.90;;;;;;5012156;28;20463;-26
2024/03/22 07:03:58;;;;;;;15.87;9.20;;;14.00;99.90;;;;;;5021112;28;20486;-26
2024/03/22 07:06:24;;;;;;;13.23;8.73;;;14.00;99.90;;;;;;5022585;28;20494;-28
2024/03/22 07:08:52;;;;;;;14.57;11.10;;;14.10;99.90;;;;;;5018296;28;20490;-28
2024/03/22 07:11:19;;;;;;;13.40;10.10;;;14.10;99.90;;;;;;5036181;28;20516;-25
2024/03/22 07:13:48;;;;;;;16.70;11.47;;;14.10;99.90;;;;;;5019999;28;20461;-26
2024/03/22 07:16:16;;;;;;;16.70;11.30;;;14.00;99.90;;;;;;5019096;28;20922;-25
2024/03/22 07:18:42;;;;;;;14.33;8.90;;;14.10;99.90;;;;;;5037268;28;20853;-29
2024/03/22 07:21:08;;;;;;;13.43;10.30;;;14.10;99.90;;;;;;5016861;28;20438;-26
2024/03/22 07:23:34;;;;;;;15.80;9.70;;;14.10;99.90;;;;;;5019788;28;20438;-26
2024/03/22 07:26:00;;;;;;;15.70;11.40;;;14.10;99.90;;;;;;5021244;28;20422;-29
2024/03/22 07:28:26;;;;;;;12.97;10.00;;;14.10;99.90;;;;;;5020670;28;20570;-27
2024/03/22 07:30:55;;;;;;;19.00;11.20;;;14.10;99.90;;;;;;5034003;28;20493;-26
2024/03/22 07:33:29;;;;;;;11.10;9.27;;;14.10;99.90;;;;;;5001605;28;20432;-26
2024/03/22 07:36:04;;;;;;;17.27;10.60;;;14.10;99.90;;;;;;5030702;28;20419;-28
2024/03/22 07:38:32;;;;;;;16.03;10.13;;;14.10;99.90;;;;;;5016841;28;20474;-26
2024/03/22 07:40:58;;;;;;;15.40;10.80;;;14.10;99.90;;;;;;5037101;28;20829;-27
2024/03/22 07:43:24;;;;;;;16.47;11.00;;;14.10;99.90;;;;;;5018055;28;20423;-26
2024/03/22 07:45:53;;;;;;;15.03;10.70;;;14.10;99.90;;;;;;5015620;28;21326;-29
2024/03/22 07:48:22;;;;;;;16.57;11.03;;;14.10;99.90;;;;;;4997261;28;20850;-26
2024/03/22 07:50:56;;;;;;;14.87;10.90;;;14.10;99.90;;;;;;4996131;28;20501;-25
2024/03/22 07:53:24;;;;;;;15.70;11.03;;;14.20;99.90;;;;;;4991393;28;20449;-26
2024/03/22 07:55:51;;;;;;;17.10;12.67;;;14.20;99.90;;;;;;5014352;28;20852;-26
2024/03/22 07:58:22;;;;;;;15.73;11.57;;;14.20;99.90;;;;;;5017333;28;20546;-28
2024/03/22 08:00:52;;;;;;;15.23;10.90;;;14.20;99.90;;;;;;5004104;28;20493;-26
2024/03/22 08:03:20;;;;;;;15.90;11.67;;;14.20;99.90;;;;;;5035179;28;20486;-27
2024/03/22 08:05:48;;;;;;;18.70;12.27;;;14.20;99.90;;;;;;5039005;28;20814;-28
2024/03/22 08:08:17;;;;;;;17.07;12.60;;;14.20;99.90;;;;;;5036971;28;20538;-27
2024/03/22 08:10:48;;;;;;;15.77;11.97;;;14.20;99.90;;;;;;5012822;28;20442;-29
2024/03/22 08:13:17;;;;;;;18.50;12.57;;;14.20;99.90;;;;;;5035699;28;20418;-26
2024/03/22 08:15:45;;;;;;;16.83;12.50;;;14.20;99.90;;;;;;5039757;28;20426;-25
2024/03/22 08:18:13;;;;;;;16.03;12.70;;;14.20;99.90;;;;;;5018865;28;20837;-25
2024/03/22 08:20:41;;;;;;;22.23;13.27;;;14.20;99.90;;;;;;5035073;28;20439;-30
2024/03/22 08:26:52;;;;;;;16.63;12.93;;;14.20;99.90;;;;;;5009940;28;21232;-25
2024/03/22 08:29:20;;;;;;;17.47;12.87;;;14.20;99.90;;;;;;5000980;28;20501;-24
2024/03/22 08:31:46;;;;;;;21.27;13.60;;;14.20;99.90;;;;;;5035114;28;20422;-28
2024/03/22 08:34:12;;;;;;;15.27;11.90;;;14.30;99.90;;;;;;5021614;28;20214;-28
2024/03/22 08:36:39;;;;;;;21.83;14.37;;;14.30;99.90;;;;;;5020807;28;20469;-28
2024/03/22 08:39:07;;;;;;;19.73;13.17;;;14.30;99.90;;;;;;5039380;28;20482;-28
2024/03/22 08:41:33;;;;;;;19.13;11.90;;;14.30;99.90;;;;;;4988383;28;20988;-28
2024/03/22 08:44:01;;;;;;;17.53;13.17;;;14.30;99.90;;;;;;5039801;28;20419;-30
2024/03/22 08:47:30;;;;;;;19.73;12.93;;;14.30;99.90;;;;;;5021989;28;20425;-29
2024/03/22 08:50:07;;;;;;;15.20;12.10;;;14.30;99.90;;;;;;5039942;28;20458;-27
2024/03/22 08:52:44;;;;;;;17.70;12.40;;;14.30;99.90;;;;;;5040920;28;20430;-29
2024/03/22 08:55:14;;;;;;;17.43;12.23;;;14.30;99.90;;;;;;5040132;28;20418;-31
2024/03/22 08:57:40;;;;;;;14.97;12.27;;;14.30;99.90;;;;;;5040639;28;20462;-29
2024/03/22 09:00:08;;;;;;;17.53;11.70;;;14.30;99.90;;;;;;5021602;28;20501;-31
2024/03/22 09:02:35;;;;;;;14.20;11.13;;;14.40;99.90;;;;;;5021560;28;20415;-29
2024/03/22 09:05:07;;;;;;;16.23;12.30;;;14.40;99.90;;;;;;5040304;28;20919;-30
2024/03/22 09:07:38;;;;;;;16.53;11.60;;;14.40;99.90;;;;;;5005465;28;20473;-32
2024/03/22 09:10:07;;;;;;;14.00;11.30;;;14.40;99.90;;;;;;5040242;28;20408;-30
2024/03/22 09:12:39;;;;;;;15.97;11.93;;;14.40;99.90;;;;;;5044226;28;20492;-31
2024/03/22 09:15:08;;;;;;;16.30;10.20;;;14.40;99.90;;;;;;5026205;28;20414;-27
2024/03/22 09:17:35;;;;;;;20.00;11.70;;;14.50;99.90;;;;;;5043753;28;20510;-30
2024/03/22 09:20:03;;;;;;;14.57;10.17;;;14.50;99.90;;;;;;5044346;28;20434;-27
2024/03/22 09:22:32;;;;;;;15.63;11.47;;;14.50;99.90;;;;;;5026201;28;20457;-27
2024/03/22 09:25:02;;;;;;;14.00;11.13;;;14.50;99.90;;;;;;5009697;28;20423;-30
2024/03/22 09:27:28;;;;;;;17.50;11.07;;;14.50;99.90;;;;;;5043434;28;20530;-27
2024/03/22 09:29:58;;;;;;;17.90;11.50;;;14.50;99.90;;;;;;5025433;28;20442;-30
2024/03/22 09:32:26;;;;;;;14.40;10.17;;;14.50;99.90;;;;;;5043155;28;20538;-28
2024/03/22 09:34:54;;;;;;;13.60;9.83;;;14.50;99.90;;;;;;5042425;28;20818;-28
2024/03/22 09:37:20;;;;;;;15.13;10.70;;;14.60;99.90;;;;;;5024803;28;20965;-31
2024/03/22 09:39:54;;;;;;;18.30;11.17;;;14.60;99.90;;;;;;5013016;28;20415;-26
2024/03/22 09:42:25;;;;;;;14.73;10.03;;;14.60;99.90;;;;;;5028843;28;20530;-31
2024/03/22 09:44:51;;;;;;;14.83;10.67;;;14.60;99.90;;;;;;5043176;28;20414;-29
2024/03/22 09:47:20;;;;;;;12.20;9.33;;;14.60;99.90;;;;;;5042565;28;20562;-28
2024/03/22 09:49:49;;;;;;;15.43;10.23;;;14.60;99.90;;;;;;5025264;28;20449;-31
2024/03/22 09:52:19;;;;;;;12.27;10.23;;;14.60;99.90;;;;;;5044306;28;20499;-29
2024/03/22 09:54:47;;;;;;;15.50;10.50;;;14.60;99.90;;;;;;5027061;28;20429;-28
2024/03/22 09:57:22;;;;;;;12.33;10.20;;;14.60;99.90;;;;;;5044816;28;20863;-30
2024/03/22 10:00:21;;;;;;;13.07;10.20;;;14.70;99.90;;;;;;5045676;28;20423;-30
2024/03/22 10:02:56;;;;;;;16.73;10.50;;;14.70;99.90;;;;;;5028887;28;20522;-29
2024/03/22 10:05:26;;;;;;;13.67;10.33;;;14.70;99.90;;;;;;5029608;28;20792;-29
2024/03/22 10:07:57;;;;;;;13.23;10.30;;;14.70;99.90;;;;;;5027317;28;20584;-25
2024/03/22 10:10:27;;;;;;;14.17;9.90;;;14.70;99.90;;;;;;5035372;28;20415;-27
2024/03/22 10:12:55;;;;;;;13.23;10.23;;;14.70;99.90;;;;;;5010520;28;20437;-30
2024/03/22 10:15:23;;;;;;;11.87;8.93;;;14.70;99.90;;;;;;5035251;28;21026;-30
2024/03/22 10:17:56;;;;;;;14.40;9.87;;;14.80;99.90;;;;;;5014390;28;20456;-28
2024/03/22 10:20:22;;;;;;;16.30;9.20;;;14.80;99.80;;;;;;5042184;28;20435;-29
2024/03/22 10:22:55;;;;;;;11.67;9.37;;;14.80;99.80;;;;;;5023450;28;20878;-28
2024/03/22 10:25:27;;;;;;;13.13;9.13;;;14.80;99.70;;;;;;5041590;28;20449;-30
2024/03/22 10:27:59;;;;;;;13.97;9.47;;;14.80;99.70;;;;;;5042493;28;20869;-28
2024/03/22 10:30:26;;;;;;;13.10;8.63;;;14.80;99.60;;;;;;5023455;28;20440;-27
2024/03/22 10:32:52;;;;;;;12.17;8.33;;;14.80;99.50;;;;;;5041118;28;20477;-27
2024/03/22 10:35:24;;;;;;;9.60;7.90;;;14.90;99.50;;;;;;5023295;28;20941;-29
2024/03/22 10:37:53;;;;;;;12.77;8.83;;;14.90;99.40;;;;;;5041005;28;20855;-27
2024/03/22 10:40:22;;;;;;;10.47;8.30;;;14.90;99.40;;;;;;5041141;28;20470;-27
2024/03/22 10:42:51;;;;;;;9.70;7.50;;;14.90;99.40;;;;;;5042136;28;20772;-29
2024/03/22 10:45:17;;;;;;;11.13;8.07;;;14.90;99.40;;;;;;5023444;28;20989;-29
2024/03/22 10:47:45;;;;;;;11.00;8.10;;;14.90;99.40;;;;;;5022220;28;20473;-30
2024/03/22 10:50:18;;;;;;;11.50;8.60;;;14.90;99.30;;;;;;5022751;28;20418;-27
2024/03/22 10:52:50;;;;;;;13.93;8.30;;;14.90;99.20;;;;;;5026287;28;20434;-28
2024/03/22 10:55:33;;;;;;;11.57;7.87;;;14.90;99.10;;;;;;5043877;28;20430;-32
2024/03/22 10:57:59;;;;;;;13.27;7.90;;;15.00;99.10;;;;;;5008237;28;20466;-29
2024/03/22 11:00:29;;;;;;;9.23;7.67;;;15.00;99.10;;;;;;5002620;28;20417;-28
2024/03/22 11:02:56;;;;;;;11.57;7.40;;;15.00;99.00;;;;;;5024828;28;20442;-30
2024/03/22 11:05:22;;;;;;;12.73;7.40;;;15.00;98.90;;;;;;5022329;28;21033;-28
2024/03/22 11:07:59;;;;;;;9.03;6.77;;;15.00;99.00;;;;;;5022620;28;20472;-30
2024/03/22 11:10:33;;;;;;;9.40;6.27;;;15.00;99.10;;;;;;5040718;28;20425;-29
2024/03/22 11:13:06;;;;;;;14.23;8.27;;;15.00;99.00;;;;;;5040260;28;20423;-29
2024/03/22 11:15:33;;;;;;;8.27;7.00;;;15.00;99.10;;;;;;5040616;28;20504;-27
2024/03/22 11:18:00;;;;;;;9.30;6.10;;;15.00;99.10;;;;;;5021534;28;20439;-29
2024/03/22 11:20:27;;;;;;;10.80;7.43;;;15.00;99.10;;;;;;5039473;28;20979;-28
2024/03/22 11:22:54;;;;;;;10.90;7.50;;;15.00;99.00;;;;;;5040006;28;20451;-32
2024/03/22 11:25:20;;;;;;;9.80;6.70;;;15.10;99.10;;;;;;5021753;28;20542;-28
2024/03/22 11:27:49;;;;;;;11.23;6.87;;;15.10;99.00;;;;;;5020282;28;20561;-29
2024/03/22 11:30:16;;;;;;;9.03;7.30;;;15.10;99.00;;;;;;5004981;28;20460;-31
2024/03/22 11:32:45;;;;;;;10.67;7.57;;;15.10;98.80;;;;;;5021857;28;21002;-36
2024/03/22 11:35:14;;;;;;;9.50;8.17;;;15.10;98.70;;;;;;5039610;28;20483;-30
2024/03/22 11:37:41;;;;;;;12.13;8.43;;;15.10;98.60;;;;;;5029704;28;20568;-29
2024/03/22 11:40:10;;;;;;;13.37;8.00;;;15.10;98.60;;;;;;5020001;28;20420;-29
2024/03/22 11:42:50;;;;;;;11.10;9.20;;;15.20;98.60;;;;;;5007107;28;20540;-28
2024/03/22 11:45:19;;;;;;;8.20;7.03;;;15.20;98.50;;;;;;5034201;28;20440;-28
2024/03/22 11:47:47;;;;;;;9.90;7.40;;;15.20;98.50;;;;;;5034572;28;20468;-29
2024/03/22 11:50:19;;;;;;;13.03;7.20;;;15.20;98.50;;;;;;5039175;28;20520;-24
2024/03/22 11:52:47;;;;;;;12.13;8.53;;;15.20;98.90;;;;;;5040097;28;20469;-28
2024/03/22 11:55:14;;;;;;;9.27;7.70;;;15.20;98.60;;;;;;5014033;28;20424;-28
2024/03/22 11:57:49;;;;;;;10.70;8.10;;;15.20;98.60;;;;;;5019073;28;20902;-26
2024/03/22 12:00:17;;;;;;;10.30;7.70;;;15.30;98.80;;;;;;5016784;28;21240;-28
2024/03/22 12:02:43;;;;;;;12.03;8.00;;;15.30;98.80;;;;;;5019190;28;20424;-29
2024/03/22 12:05:10;;;;;;;9.40;7.20;;;15.30;98.80;;;;;;5019200;28;20465;-24
2024/03/22 12:07:37;;;;;;;10.30;7.20;;;15.30;98.90;;;;;;5020331;28;20504;-29
2024/03/22 12:10:04;;;;;;;10.60;8.23;;;15.30;98.90;;;;;;5020574;28;20415;-24
2024/03/22 12:12:30;;;;;;;9.60;8.10;;;15.30;98.90;;;;;;5018935;28;20578;-29
2024/03/22 12:14:56;;;;;;;11.33;7.57;;;15.30;98.90;;;;;;5004334;28;20430;-22
2024/03/22 12:17:22;;;;;;;11.97;8.30;;;15.30;98.90;;;;;;5020449;28;20447;-23
2024/03/22 12:19:48;;;;;;;12.47;7.23;;;15.30;98.90;;;;;;5038667;28;21064;-28
2024/03/22 12:22:14;;;;;;;8.73;7.27;;;15.30;98.90;;;;;;5020491;28;20448;-27
2024/03/22 12:24:45;;;;;;;11.27;7.30;;;15.30;98.90;;;;;;5039215;28;20850;-24
2024/03/22 12:27:12;;;;;;;8.50;6.50;;;15.30;99.00;;;;;;5018820;28;20554;-26
2024/03/22 12:29:40;;;;;;;9.07;6.63;;;15.30;99.00;;;;;;5037208;28;20473;-26
2024/03/22 12:32:10;;;;;;;8.53;6.33;;;15.30;99.10;;;;;;5020633;28;20441;-28
2024/03/22 12:34:36;;;;;;;9.47;6.30;;;15.30;99.00;;;;;;5039479;28;20416;-29
2024/03/22 12:37:02;;;;;;;10.37;7.70;;;15.30;99.40;;;;;;5039368;28;20441;-25
2024/03/22 12:39:28;;;;;;;11.60;7.90;;;15.30;99.00;;;;;;5039575;28;20930;-27
2024/03/22 12:41:54;;;;;;;8.07;6.67;;;15.40;99.00;;;;;;5020969;28;20412;-28